createdAt,value
2018-08-08T00:01:30.512Z,25.10
2018-08-08T00:03:58.556Z,25.00
2018-08-08T00:06:26.609Z,24.90
2018-08-08T00:08:54.689Z,24.90
2018-08-08T00:11:22.875Z,24.90
2018-08-08T00:13:51.001Z,24.80
2018-08-08T00:16:19.032Z,24.70
2018-08-08T00:18:47.164Z,24.60
2018-08-08T00:21:15.355Z,24.50
2018-08-08T00:23:43.368Z,24.50
2018-08-08T00:26:11.411Z,24.50
2018-08-08T00:28:39.488Z,24.50
2018-08-08T00:31:07.485Z,24.50
2018-08-08T00:33:35.569Z,24.50
2018-08-08T00:36:03.603Z,24.40
2018-08-08T00:38:31.637Z,24.30
2018-08-08T00:40:59.737Z,24.20
2018-08-08T00:43:28.110Z,24.20
2018-08-08T00:45:56.192Z,24.30
2018-08-08T00:48:24.189Z,24.30
2018-08-08T00:50:52.456Z,24.20
2018-08-08T00:53:20.548Z,24.20
2018-08-08T00:55:48.633Z,24.00
2018-08-08T00:58:16.652Z,24.00
2018-08-08T01:00:44.661Z,24.00
2018-08-08T01:03:12.786Z,24.00
2018-08-08T01:05:40.873Z,23.90
2018-08-08T01:08:08.963Z,23.80
2018-08-08T01:10:36.949Z,23.80
2018-08-08T01:13:04.972Z,23.70
2018-08-08T01:15:33.012Z,23.70
2018-08-08T01:18:01.091Z,23.70
2018-08-08T01:20:29.116Z,23.70
2018-08-08T01:22:57.189Z,23.60
2018-08-08T01:25:25.188Z,23.60
2018-08-08T01:27:53.216Z,23.60
2018-08-08T01:30:21.301Z,23.60
2018-08-08T01:32:49.369Z,23.50
2018-08-08T01:35:17.377Z,23.50
2018-08-08T01:37:45.402Z,23.50
2018-08-08T01:40:15.572Z,23.50
2018-08-08T01:42:43.869Z,23.50
2018-08-08T01:45:13.077Z,23.60
2018-08-08T01:47:41.169Z,23.50
2018-08-08T01:50:11.118Z,23.50
2018-08-08T01:52:39.580Z,23.40
2018-08-08T01:55:09.104Z,23.40
2018-08-08T01:57:37.368Z,23.40
2018-08-08T02:00:08.453Z,23.40
2018-08-08T02:02:36.728Z,23.40
2018-08-08T02:05:05.033Z,23.40
2018-08-08T02:07:33.130Z,23.30
2018-08-08T02:10:01.333Z,23.20
2018-08-08T02:12:29.376Z,23.10
2018-08-08T02:14:57.468Z,23.00
2018-08-08T02:19:58.952Z,22.90
2018-08-08T02:22:27.036Z,22.80
2018-08-08T02:24:55.070Z,22.90
2018-08-08T02:27:23.069Z,22.90
2018-08-08T02:32:42.413Z,22.80
2018-08-08T02:35:10.693Z,22.70
2018-08-08T02:37:38.846Z,22.70
2018-08-08T02:40:07.818Z,22.60
2018-08-08T02:42:35.854Z,22.60
2018-08-08T02:45:04.518Z,22.60
2018-08-08T02:47:32.574Z,22.50
2018-08-08T02:50:00.889Z,22.50
2018-08-08T02:52:28.915Z,22.50
2018-08-08T02:54:56.905Z,22.30
2018-08-08T02:57:25.125Z,22.20
2018-08-08T02:59:53.118Z,22.00
2018-08-08T03:02:21.150Z,21.80
2018-08-08T03:04:49.266Z,21.80
2018-08-08T03:07:17.350Z,21.70
2018-08-08T03:09:45.337Z,21.60
2018-08-08T03:12:13.717Z,21.50
2018-08-08T03:14:41.713Z,21.50
2018-08-08T03:17:09.718Z,21.40
2018-08-08T03:19:37.788Z,21.40
2018-08-08T03:22:05.853Z,21.50
2018-08-08T03:24:34.077Z,21.60
2018-08-08T03:27:02.041Z,21.50
2018-08-08T03:29:30.085Z,21.40
2018-08-08T03:31:58.413Z,21.30
2018-08-08T03:34:26.426Z,21.30
2018-08-08T03:36:54.461Z,21.40
2018-08-08T03:39:22.489Z,21.40
2018-08-08T03:41:50.526Z,21.40
2018-08-08T03:44:18.610Z,21.40
2018-08-08T03:46:46.695Z,21.30
2018-08-08T03:49:14.701Z,21.20
2018-08-08T03:51:42.710Z,21.20
2018-08-08T03:54:11.145Z,21.30
2018-08-08T03:56:39.230Z,21.30
2018-08-08T03:59:07.307Z,21.30
2018-08-08T04:01:35.393Z,21.30
2018-08-08T04:04:03.483Z,21.40
2018-08-08T04:06:31.505Z,21.60
2018-08-08T04:08:59.541Z,21.70
2018-08-08T04:11:27.565Z,21.60
2018-08-08T04:13:55.566Z,21.60
2018-08-08T04:16:23.694Z,21.60
2018-08-08T04:18:51.686Z,21.70
2018-08-08T04:21:19.730Z,21.70
2018-08-08T04:23:47.743Z,21.60
2018-08-08T04:26:16.138Z,21.70
2018-08-08T04:28:44.129Z,21.80
2018-08-08T04:31:12.173Z,21.80
2018-08-08T04:33:40.186Z,21.90
2018-08-08T04:36:08.177Z,22.20
2018-08-08T04:38:36.201Z,22.30
2018-08-08T04:41:04.373Z,22.20
2018-08-08T04:43:32.417Z,22.20
2018-08-08T04:46:00.502Z,22.20
2018-08-08T04:48:28.542Z,22.20
2018-08-08T04:50:56.555Z,22.30
2018-08-08T04:53:24.541Z,22.20
2018-08-08T04:55:52.630Z,22.40
2018-08-08T04:58:20.739Z,22.50
2018-08-08T05:00:49.463Z,22.50
2018-08-08T05:03:17.491Z,22.50
2018-08-08T05:05:45.482Z,22.70
2018-08-08T05:08:13.520Z,22.90
2018-08-08T05:10:41.523Z,23.20
2018-08-08T05:13:09.630Z,23.40
2018-08-08T05:15:37.669Z,23.60
2018-08-08T05:18:05.918Z,23.60
2018-08-08T05:20:34.138Z,23.80
2018-08-08T05:23:02.148Z,23.90
2018-08-08T05:25:30.455Z,24.10
2018-08-08T05:27:58.845Z,24.20
2018-08-08T05:30:26.932Z,24.30
2018-08-08T05:32:55.022Z,24.50
2018-08-08T05:35:23.106Z,24.70
2018-08-08T05:37:51.187Z,24.90
2018-08-08T05:40:21.404Z,24.90
2018-08-08T05:42:50.480Z,24.90
2018-08-08T05:45:18.509Z,25.00
2018-08-08T05:47:47.760Z,25.10
2018-08-08T05:50:15.787Z,25.10
2018-08-08T05:52:43.993Z,25.20
2018-08-08T05:55:13.515Z,25.40
2018-08-08T05:57:41.548Z,25.50
2018-08-08T06:00:16.907Z,25.70
2018-08-08T06:02:45.029Z,25.80
2018-08-08T06:05:13.624Z,26.00
2018-08-08T06:07:42.022Z,26.30
2018-08-08T06:10:10.310Z,26.50
2018-08-08T06:12:38.709Z,26.70
2018-08-08T06:15:10.207Z,26.70
2018-08-08T06:17:38.856Z,26.90
2018-08-08T06:20:10.258Z,27.00
2018-08-08T06:22:38.316Z,27.00
2018-08-08T06:25:10.144Z,27.00
2018-08-08T06:27:39.085Z,27.20
2018-08-08T06:30:10.967Z,27.30
2018-08-08T06:32:39.009Z,27.40
2018-08-08T06:35:07.244Z,27.50
2018-08-08T06:37:36.141Z,27.50
2018-08-08T06:40:04.959Z,27.50
2018-08-08T06:42:32.958Z,27.80
2018-08-08T06:45:01.117Z,28.00
2018-08-08T06:47:29.124Z,28.00
2018-08-08T06:49:57.485Z,28.20
2018-08-08T06:52:25.565Z,28.30
2018-08-08T06:54:53.640Z,28.50
2018-08-08T06:57:21.685Z,28.40
2018-08-08T06:59:49.735Z,28.60
2018-08-08T07:02:17.801Z,28.80
2018-08-08T07:04:45.847Z,28.90
2018-08-08T07:07:13.856Z,29.20
2018-08-08T07:09:42.249Z,29.50
2018-08-08T07:12:10.337Z,29.60
2018-08-08T07:14:38.461Z,29.70
2018-08-08T07:17:06.594Z,30.00
2018-08-08T07:19:34.630Z,30.10
2018-08-08T07:22:02.982Z,30.20
2018-08-08T07:24:31.063Z,30.10
2018-08-08T07:26:59.463Z,30.30
2018-08-08T07:29:27.537Z,30.50
2018-08-08T07:31:55.623Z,30.60
2018-08-08T07:34:23.705Z,30.70
2018-08-08T07:36:52.318Z,30.70
2018-08-08T07:39:20.390Z,30.80
2018-08-08T07:41:48.393Z,30.90
2018-08-08T07:44:16.453Z,31.00
2018-08-08T07:46:44.461Z,31.00
2018-08-08T07:49:12.522Z,31.10
2018-08-08T07:51:40.613Z,31.10
2018-08-08T07:54:08.694Z,31.10
2018-08-08T07:56:36.773Z,31.10
2018-08-08T07:59:04.862Z,31.40
2018-08-08T08:01:32.930Z,31.40
2018-08-08T08:04:00.953Z,31.70
2018-08-08T08:06:29.005Z,31.70
2018-08-08T08:08:57.055Z,31.80
2018-08-08T08:11:25.173Z,31.50
2018-08-08T08:13:53.565Z,31.50
2018-08-08T08:16:21.556Z,31.60
2018-08-08T08:18:49.558Z,31.80
2018-08-08T08:21:17.594Z,31.90
2018-08-08T08:23:45.696Z,31.90
2018-08-08T08:26:13.787Z,31.90
2018-08-08T08:28:41.866Z,31.90
2018-08-08T08:31:09.882Z,32.00
2018-08-08T08:33:37.934Z,32.00
2018-08-08T08:36:05.941Z,32.20
2018-08-08T08:38:33.933Z,32.30
2018-08-08T08:41:01.988Z,32.50
2018-08-08T08:43:29.990Z,32.60
2018-08-08T08:45:58.045Z,32.70
2018-08-08T08:48:26.129Z,32.80
2018-08-08T08:50:54.127Z,32.80
2018-08-08T08:53:22.162Z,32.90
2018-08-08T08:55:50.518Z,33.00
2018-08-08T08:58:18.668Z,33.10
2018-08-08T09:00:46.665Z,33.20
2018-08-08T09:03:14.703Z,33.10
2018-08-08T09:05:42.737Z,33.10
2018-08-08T09:08:10.810Z,33.20
2018-08-08T09:10:38.832Z,33.30
2018-08-08T09:13:06.897Z,33.40
2018-08-08T09:15:35.058Z,33.60
2018-08-08T09:18:03.285Z,33.60
2018-08-08T09:20:31.333Z,33.80
2018-08-08T09:22:59.401Z,33.90
2018-08-08T09:25:27.405Z,33.70
2018-08-08T09:27:55.689Z,33.80
2018-08-08T09:30:23.731Z,33.90
2018-08-08T09:32:51.667Z,33.90
2018-08-08T09:35:19.696Z,34.00
2018-08-08T09:37:47.734Z,34.00
2018-08-08T09:40:15.919Z,34.20
2018-08-08T09:42:43.865Z,34.20
2018-08-08T09:45:11.965Z,34.20
2018-08-08T09:47:40.144Z,34.20
2018-08-08T09:50:08.850Z,34.40
2018-08-08T09:52:36.895Z,34.60
2018-08-08T09:55:05.229Z,34.70
2018-08-08T09:57:33.309Z,34.70
2018-08-08T10:00:01.394Z,34.80
2018-08-08T10:02:34.916Z,34.80
2018-08-08T10:05:02.971Z,34.80
2018-08-08T10:07:30.966Z,34.80
2018-08-08T10:09:58.969Z,34.90
2018-08-08T10:12:27.344Z,35.00
2018-08-08T10:14:55.404Z,35.20
2018-08-08T10:17:23.442Z,35.20
2018-08-08T10:19:51.497Z,35.30
2018-08-08T10:22:19.486Z,35.50
2018-08-08T10:24:47.564Z,35.50
2018-08-08T10:27:15.611Z,35.50
2018-08-08T10:29:44.092Z,35.50
2018-08-08T10:32:12.326Z,35.40
2018-08-08T10:34:40.409Z,35.60
2018-08-08T10:37:08.400Z,35.70
2018-08-08T10:39:36.482Z,35.80
2018-08-08T10:42:04.665Z,35.90
2018-08-08T10:44:32.673Z,36.10
2018-08-08T10:47:00.718Z,36.10
2018-08-08T10:49:28.957Z,36.20
2018-08-08T10:51:57.097Z,36.40
2018-08-08T10:54:25.154Z,36.40
2018-08-08T10:56:53.573Z,36.20
2018-08-08T10:59:21.575Z,36.10
2018-08-08T11:01:49.644Z,36.00
2018-08-08T11:04:17.702Z,36.10
2018-08-08T11:06:46.018Z,36.30
2018-08-08T11:09:14.035Z,36.30
2018-08-08T11:11:42.129Z,36.40
2018-08-08T11:14:10.473Z,36.60
2018-08-08T11:16:38.466Z,36.60
2018-08-08T11:19:06.466Z,36.50
2018-08-08T11:21:34.784Z,36.70
2018-08-08T11:24:02.809Z,36.50
2018-08-08T11:26:31.193Z,36.40
2018-08-08T11:28:59.594Z,36.60
2018-08-08T11:31:27.585Z,36.70
2018-08-08T11:33:55.714Z,36.70
2018-08-08T11:36:23.789Z,36.90
2018-08-08T11:38:51.959Z,36.90
2018-08-08T11:41:20.113Z,37.00
2018-08-08T11:43:48.197Z,37.10
2018-08-08T11:46:16.285Z,37.00
2018-08-08T11:48:44.366Z,37.00
2018-08-08T11:51:12.352Z,37.10
2018-08-08T11:53:40.357Z,37.10
2018-08-08T11:56:08.416Z,37.00
2018-08-08T11:58:36.406Z,36.80
2018-08-08T12:01:04.477Z,36.80
2018-08-08T12:03:32.566Z,36.80
2018-08-08T12:06:00.668Z,36.90
2018-08-08T12:08:28.702Z,36.80
2018-08-08T12:10:56.750Z,36.70
2018-08-08T12:13:24.798Z,36.90
2018-08-08T12:15:52.798Z,37.10
2018-08-08T12:18:20.829Z,37.20
2018-08-08T12:20:49.050Z,37.40
2018-08-08T12:23:17.436Z,37.40
2018-08-08T12:25:45.471Z,37.30
2018-08-08T12:28:13.478Z,37.20
2018-08-08T12:30:41.490Z,37.20
2018-08-08T12:33:09.577Z,37.40
2018-08-08T12:35:37.715Z,37.60
2018-08-08T12:38:05.740Z,37.50
2018-08-08T12:40:33.830Z,37.60
2018-08-08T12:43:02.802Z,37.60
2018-08-08T12:45:31.117Z,37.10
2018-08-08T12:47:59.122Z,36.80
2018-08-08T12:50:27.184Z,37.10
2018-08-08T12:52:55.279Z,37.10
2018-08-08T12:55:23.353Z,37.40
2018-08-08T12:57:51.366Z,37.50
2018-08-08T13:00:19.741Z,37.50
2018-08-08T13:02:47.812Z,37.50
2018-08-08T13:05:15.874Z,37.20
2018-08-08T13:07:44.292Z,36.90
2018-08-08T13:10:12.374Z,36.90
2018-08-08T13:12:40.824Z,36.90
2018-08-08T13:15:09.588Z,36.90
2018-08-08T13:17:37.854Z,36.70
2018-08-08T13:20:06.331Z,36.80
2018-08-08T13:22:34.321Z,37.00
2018-08-08T13:25:02.326Z,37.20
2018-08-08T13:27:30.497Z,37.20
2018-08-08T13:29:58.589Z,37.20
2018-08-08T13:32:27.061Z,37.30
2018-08-08T13:34:55.457Z,37.30
2018-08-08T13:37:23.562Z,37.20
2018-08-08T13:39:51.591Z,37.20
2018-08-08T13:42:19.582Z,37.10
2018-08-08T13:44:47.622Z,37.10
2018-08-08T13:47:16.104Z,37.20
2018-08-08T13:49:44.099Z,37.00
2018-08-08T13:52:12.524Z,37.20
2018-08-08T13:54:40.459Z,37.20
2018-08-08T13:57:08.545Z,37.40
2018-08-08T13:59:36.932Z,37.30
2018-08-08T14:02:05.014Z,37.40
2018-08-08T14:04:33.102Z,37.50
2018-08-08T14:07:01.101Z,37.60
2018-08-08T14:09:29.161Z,37.70
2018-08-08T14:11:57.277Z,37.90
2018-08-08T14:14:25.423Z,37.80
2018-08-08T14:16:53.343Z,37.60
2018-08-08T14:19:25.843Z,37.30
2018-08-08T14:21:54.862Z,37.20
2018-08-08T14:24:25.862Z,37.50
2018-08-08T14:26:56.814Z,37.60
2018-08-08T14:29:29.807Z,37.80
2018-08-08T14:31:59.904Z,38.00
2018-08-08T14:34:33.091Z,38.00
2018-08-08T14:37:02.406Z,38.00
2018-08-08T14:39:30.660Z,37.90
2018-08-08T14:41:59.966Z,37.70
2018-08-08T14:44:29.981Z,37.70
2018-08-08T14:47:01.246Z,37.70
2018-08-08T14:49:30.755Z,37.70
2018-08-08T14:52:00.254Z,37.70
2018-08-08T14:54:28.425Z,37.70
2018-08-08T14:56:56.457Z,37.90
2018-08-08T14:59:24.493Z,38.20
2018-08-08T15:01:52.484Z,38.20
2018-08-08T15:04:20.511Z,37.90
2018-08-08T15:06:48.496Z,37.90
2018-08-08T15:09:16.538Z,38.10
2018-08-08T15:11:44.618Z,38.20
2018-08-08T15:14:12.772Z,38.30
2018-08-08T15:16:41.257Z,38.50
2018-08-08T15:19:09.303Z,38.80
2018-08-08T15:21:37.329Z,39.20
2018-08-08T15:24:05.689Z,39.30
2018-08-08T15:26:33.686Z,39.30
2018-08-08T15:29:01.694Z,40.20
2018-08-08T15:31:29.810Z,41.40
2018-08-08T15:33:57.721Z,42.00
2018-08-08T15:36:26.030Z,42.80
2018-08-08T15:38:53.993Z,43.10
2018-08-08T15:41:22.073Z,43.50
2018-08-08T15:43:50.153Z,43.60
2018-08-08T15:46:18.237Z,43.90
2018-08-08T15:48:46.269Z,44.30
2018-08-08T15:51:14.381Z,43.80
2018-08-08T15:53:42.413Z,44.40
2018-08-08T15:56:10.785Z,44.80
2018-08-08T15:58:38.823Z,44.80
2018-08-08T16:01:06.765Z,44.60
2018-08-08T16:03:35.105Z,43.80
2018-08-08T16:06:03.110Z,42.40
2018-08-08T16:08:31.201Z,40.70
2018-08-08T16:10:59.696Z,39.20
2018-08-08T16:13:27.710Z,38.00
2018-08-08T16:15:55.765Z,37.00
2018-08-08T16:18:23.845Z,36.50
2018-08-08T16:20:51.922Z,36.10
2018-08-08T16:23:19.977Z,35.70
2018-08-08T16:25:47.977Z,35.20
2018-08-08T16:28:16.385Z,34.80
2018-08-08T16:30:44.377Z,34.70
2018-08-08T16:33:12.369Z,34.50
2018-08-08T16:35:40.537Z,34.30
2018-08-08T16:38:08.830Z,34.00
2018-08-08T16:40:36.919Z,33.60
2018-08-08T16:43:05.102Z,33.10
2018-08-08T16:45:33.183Z,32.50
2018-08-08T16:48:01.267Z,31.40
2018-08-08T16:50:29.353Z,30.70
2018-08-08T16:52:57.386Z,30.10
2018-08-08T16:55:25.421Z,29.70
2018-08-08T16:57:53.705Z,29.40
2018-08-08T17:00:21.705Z,29.00
2018-08-08T17:02:49.698Z,28.50
2018-08-08T17:05:17.728Z,28.00
2018-08-08T17:07:45.837Z,27.40
2018-08-08T17:10:14.198Z,27.10
2018-08-08T17:12:42.218Z,27.00
2018-08-08T17:15:10.601Z,26.80
2018-08-08T17:17:38.661Z,26.70
2018-08-08T17:20:07.484Z,26.50
2018-08-08T17:22:35.518Z,26.30
2018-08-08T17:25:03.657Z,26.30
2018-08-08T17:27:31.641Z,26.40
2018-08-08T17:29:59.682Z,26.30
2018-08-08T17:32:27.668Z,26.20
2018-08-08T17:34:55.790Z,26.00
2018-08-08T17:37:23.793Z,26.20
2018-08-08T17:39:51.792Z,26.20
2018-08-08T17:42:19.836Z,26.10
2018-08-08T17:44:47.925Z,26.10
2018-08-08T17:47:15.949Z,26.20
2018-08-08T17:49:44.553Z,26.30
2018-08-08T17:52:12.751Z,26.40
2018-08-08T17:54:40.793Z,26.40
2018-08-08T17:57:09.060Z,26.10
2018-08-08T17:59:37.348Z,25.90
2018-08-08T18:02:05.349Z,25.80
2018-08-08T18:04:33.413Z,25.60
2018-08-08T18:07:01.446Z,25.30
2018-08-08T18:09:29.494Z,25.30
2018-08-08T18:11:57.577Z,25.10
2018-08-08T18:14:25.703Z,25.10
2018-08-08T18:16:53.829Z,24.90
2018-08-08T18:19:21.917Z,24.70
2018-08-08T18:21:49.917Z,24.60
2018-08-08T18:24:18.022Z,24.70
2018-08-08T18:26:46.284Z,24.80
2018-08-08T18:29:14.367Z,25.00
2018-08-08T18:31:42.417Z,24.90
2018-08-08T18:34:10.415Z,24.90
2018-08-08T18:36:38.525Z,24.80
2018-08-08T18:39:07.732Z,24.70
2018-08-08T18:41:35.858Z,24.80
2018-08-08T18:44:03.869Z,24.90
2018-08-08T18:46:31.914Z,24.90
2018-08-08T18:48:59.980Z,24.70
2018-08-08T18:51:28.046Z,24.70
2018-08-08T18:53:56.084Z,24.80
2018-08-08T18:56:24.239Z,24.90
2018-08-08T18:58:52.273Z,24.80
2018-08-08T19:01:20.294Z,24.80
2018-08-08T19:03:48.597Z,24.80
2018-08-08T19:06:16.662Z,24.90
2018-08-08T19:08:44.736Z,24.90
2018-08-08T19:11:12.817Z,24.90
2018-08-08T19:13:40.889Z,24.90
2018-08-08T19:16:08.986Z,24.90
2018-08-08T19:18:37.273Z,25.00
2018-08-08T19:21:05.378Z,25.00
2018-08-08T19:23:33.441Z,25.10
2018-08-08T19:26:01.625Z,25.10
2018-08-08T19:28:29.669Z,25.00
2018-08-08T19:30:57.707Z,25.00
2018-08-08T19:33:25.998Z,25.00
2018-08-08T19:35:53.985Z,25.00
2018-08-08T19:38:22.057Z,25.10
2018-08-08T19:40:50.089Z,25.00
2018-08-08T19:43:18.239Z,25.10
2018-08-08T19:45:46.565Z,25.10
2018-08-08T19:48:14.554Z,25.20
2018-08-08T19:50:52.497Z,25.10
2018-08-08T19:53:21.310Z,25.20
2018-08-08T19:55:49.385Z,25.20
2018-08-08T19:58:17.605Z,25.20
2018-08-08T20:00:46.381Z,25.20
2018-08-08T20:03:14.462Z,25.10
2018-08-08T20:05:42.557Z,25.10
2018-08-08T20:08:10.592Z,25.00
2018-08-08T20:10:38.613Z,24.90
2018-08-08T20:13:06.669Z,24.80
2018-08-08T20:15:34.689Z,24.60
2018-08-08T20:18:02.762Z,24.50
2018-08-08T20:20:30.790Z,24.40
2018-08-08T20:22:58.833Z,24.20
2018-08-08T20:25:26.893Z,24.20
2018-08-08T20:27:54.881Z,24.00
2018-08-08T20:30:22.918Z,23.90
2018-08-08T20:32:50.942Z,23.80
2018-08-08T20:35:18.941Z,23.60
2018-08-08T20:37:46.979Z,23.50
2018-08-08T20:40:15.213Z,23.40
2018-08-08T20:42:43.400Z,23.40
2018-08-08T20:45:11.698Z,23.40
2018-08-08T20:47:39.693Z,23.40
2018-08-08T20:50:07.693Z,23.60
2018-08-08T20:52:35.721Z,23.50
2018-08-08T20:55:03.760Z,23.80
2018-08-08T20:57:32.147Z,23.70
2018-08-08T21:00:00.297Z,23.60
2018-08-08T21:02:28.385Z,23.30
2018-08-08T21:04:56.431Z,23.40
2018-08-08T21:07:24.749Z,23.20
2018-08-08T21:09:52.746Z,23.40
2018-08-08T21:12:20.746Z,23.40
2018-08-08T21:14:49.009Z,23.60
2018-08-08T21:17:17.095Z,23.50
2018-08-08T21:19:45.153Z,23.30
2018-08-08T21:22:13.261Z,23.10
2018-08-08T21:24:41.361Z,22.90
2018-08-08T21:27:09.433Z,22.80
2018-08-08T21:29:37.514Z,22.70
2018-08-08T21:32:05.522Z,22.60
2018-08-08T21:34:33.583Z,22.80
2018-08-08T21:37:01.971Z,23.00
2018-08-08T21:39:29.979Z,22.90
2018-08-08T21:41:58.001Z,22.90
2018-08-08T21:44:26.128Z,22.80
2018-08-08T21:46:54.213Z,22.80
2018-08-08T21:49:22.221Z,22.70
2018-08-08T21:51:50.273Z,22.60
2018-08-08T21:54:29.862Z,22.50
2018-08-08T21:57:09.647Z,22.50
2018-08-08T21:59:49.352Z,22.50
2018-08-08T22:02:29.101Z,22.50
2018-08-08T22:05:08.761Z,22.40
2018-08-08T22:07:48.349Z,22.30
2018-08-08T22:10:27.841Z,22.30
2018-08-08T22:13:07.362Z,22.30
2018-08-08T22:15:46.960Z,22.20
2018-08-08T22:18:30.177Z,22.30
2018-08-08T22:20:58.301Z,22.30
2018-08-08T22:23:26.380Z,22.30
2018-08-08T22:25:54.405Z,22.30
2018-08-08T22:28:22.664Z,22.20
2018-08-08T22:30:50.746Z,22.20
2018-08-08T22:33:18.771Z,22.20
2018-08-08T22:35:46.905Z,22.20
2018-08-08T22:38:14.993Z,22.20
2018-08-08T22:40:42.998Z,22.10
2018-08-08T22:43:11.067Z,22.10
2018-08-08T22:45:39.273Z,22.10
2018-08-08T22:48:07.834Z,22.00
2018-08-08T22:50:36.266Z,22.00
2018-08-08T22:53:04.317Z,22.00
2018-08-08T22:55:32.397Z,22.10
2018-08-08T22:58:00.429Z,22.10
2018-08-08T23:00:28.518Z,22.10
2018-08-08T23:02:56.654Z,22.00
2018-08-08T23:05:24.702Z,21.90
2018-08-08T23:07:52.758Z,22.00
2018-08-08T23:10:20.798Z,22.00
2018-08-08T23:12:48.893Z,22.00
2018-08-08T23:15:16.926Z,21.90
2018-08-08T23:17:44.955Z,22.00
2018-08-08T23:20:13.048Z,22.00
2018-08-08T23:22:53.240Z,22.10
2018-08-08T23:25:21.410Z,22.10
2018-08-08T23:27:49.717Z,22.30
2018-08-08T23:30:17.770Z,22.40
2018-08-08T23:32:46.411Z,22.30
2018-08-08T23:35:14.477Z,22.30
2018-08-08T23:37:42.482Z,22.20
2018-08-08T23:40:11.705Z,22.40
2018-08-08T23:42:40.029Z,22.30
2018-08-08T23:45:08.830Z,22.20
2018-08-08T23:47:36.922Z,22.20
2018-08-08T23:50:05.830Z,22.20
2018-08-08T23:52:33.909Z,22.10
2018-08-08T23:55:01.958Z,22.10
2018-08-08T23:57:29.981Z,22.00
2018-08-08T23:59:58.090Z,21.80
